KSFOMMSD

Guest
Details From KSFO - San Francisco Intl
To MMSD - Los Cabos Intl
Flight Number -
Tags Generated
Created
Modified
Stats Distance 1,087 nm / 2,014 km
Max Altitude 0 ft / 0 m
Waypoints 4
Social Downloads 2
Likes 0
Share VATSIM

Download

Looking for another format? Having issues loading an existing format? Contact us
Advertisement - Login to hide

Notes

Generated

Route

KSFO FLW SJD MMSD

ID Type Via Altitude Latitude Longitude Leg Dist Tot Dist Heading (true) Name
O KSFO APT - 0 ft / 0 m 37.60898˚ -122.38220˚ - 0 nm - -
FLW VOR - 0 ft / 0 m 35.09308˚ -119.86558˚ 194 nm 194 nm 140° / 142° FELLOWS VORTAC
SJD VOR - 0 ft / 0 m 23.14616˚ -109.72154˚ 892 nm 1086 nm 141° / 146° CABOS VOR-DME
O MMSD APT - 0 ft / 0 m 23.16528˚ -109.72264˚ 1 nm 1087 nm 357° / 357° -

Altitude Profile

Advertisement - Login to hide

Weather


0- 5 10 15 20 25 30 35+ Temperature / ° C

Clouds and Precipitation
Forecast for 2018-05-24 18:00 UTC. Updated 3 hours ago

Ground ~20,000 ft ~40,000 ft Winds

KSFO

Details ICAO KSFO (SFO)
Name San Francisco Intl
Region United States
Timezone America/Los_Angeles (UTC-7.0)
Stats Elevation 13 ft / 4 m (AMSL)
Location 37.618674° -122.375008°
Runways 4
Magnetic Variation 13.421° E

METAR

KSFO 241956Z 27011KT 10SM FEW020 OVC028 17/08 A3008 RMK AO2 SLP184 T01670083

Decode

TAF

KSFO 241732Z 2418/2524 21007KT P6SM FEW011 OVC017 FM242100 27014G19KT P6SM BKN020 BKN050 BKN100 FM250300 25008KT P6SM VCSH BKN030 BKN100 FM250600 22006KT P6SM VCSH BKN030 OVC080 FM251500 20005KT P6SM VCSH SCT035 BKN040 BKN060 FM252000 15006KT P6SM SCT040

Decode

Departure Runways

ID Width Length Bearing (true) Bearing (mag) Surface Threshold Offset Overrun Length
01L 200 ft / 61 m 7,509 ft / 2,289 m 27.70° 14.28° Asphalt 492 ft / 150 m 0 ft / 0 m
01R 200 ft / 61 m 8,907 ft / 2,715 m 27.71° 14.29° Asphalt 492 ft / 150 m 0 ft / 0 m
10L 200 ft / 61 m 11,856 ft / 3,614 m 117.89° 104.47° Asphalt 0 ft / 0 m 860 ft / 262 m
10R 200 ft / 61 m 10,589 ft / 3,228 m 117.90° 104.48° Asphalt 0 ft / 0 m 0 ft / 0 m
19L 200 ft / 61 m 8,907 ft / 2,715 m 207.72° 194.30° Asphalt 0 ft / 0 m 0 ft / 0 m
19R 200 ft / 61 m 7,509 ft / 2,289 m 207.70° 194.28° Asphalt 0 ft / 0 m 0 ft / 0 m
28L 200 ft / 61 m 10,589 ft / 3,228 m 297.92° 284.50° Asphalt 0 ft / 0 m 341 ft / 104 m
28R 200 ft / 61 m 11,856 ft / 3,614 m 297.91° 284.49° Asphalt 0 ft / 0 m 341 ft / 104 m

MMSD

Details ICAO MMSD (SJD)
Name LOS CABOS INTL
Region Mexico
Timezone America/Mazatlan (UTC-6.0)
Stats Elevation 374 ft / 114 m (AMSL)
Location 23.151850° -109.721044°
Runways 1
Magnetic Variation 8.287° E

METAR

MMSD 241941Z 14008KT 12SM SKC 33/05 A2994 RMK RTS

Decode

TAF

Not found

Destination Runways

ID Width Length Bearing (true) Bearing (mag) Surface Threshold Offset Overrun Length
16 148 ft / 45 m 9,857 ft / 3,004 m 173.75° 165.46° Asphalt 0 ft / 0 m 215 ft / 66 m
34 148 ft / 45 m 9,857 ft / 3,004 m 353.75° 345.46° Asphalt 0 ft / 0 m 200 ft / 61 m

Popular Alternatives